• Join FlightAware (Why Join?)
  • Login
  • US Flag 
03:39AM EDT


 

Airport Tracker/Info


-or-


 

Live Flight TrackerFlight Track Log ✈ UAL3832 ✈ 24-Apr-2013 ✈ KEWR - KSTL

Flight Track Log - Related Links

Times and Time Zones

All times are in EDT time to prevent confusion due to time zone crossing. See the UAL3832 flight status page for this flight to view local times or setup timezone preferences in your user account.

Time Position Orientation Groundspeed Altitude Reporting Facility
EDT Latitude Longitude Course Direction KTS MPH feet Rate Location/Type
02:00PM 40.6667 -74.1833 276° West 160 184 1,300  Level New York TRACON
02:01PM 40.6167 -74.2167 207° Southwest 222 255 2,200 1,680 Climbing New York TRACON
02:02PM 40.6333 -74.3000 285° West 240 276 4,700 2,280 Climbing New York TRACON
02:03PM 40.6333 -74.3833 270° West 250 288 6,800 2,100 Climbing New York TRACON
02:04PM 40.7437 -74.6298 277° West  Level FlightAware Approximate
02:04PM 40.6333 -74.4667 270° West 249 287 9,000  Level New York TRACON
02:05PM 40.7539 -74.7504 276° West  Level FlightAware Approximate
02:05PM 40.6667 -74.5333 303° West 291 335 10,400  Level New York TRACON
02:06PM 40.7632 -74.8711 276° West  Level FlightAware Approximate
02:06PM 40.7500 -74.5667 343° North 295 339 12,200  Level New York TRACON
02:07PM 40.8333 -74.6000 343° North 299 344 13,700 1,200 Climbing New York TRACON
02:08PM 40.9000 -74.6500 330° Northwest 311 358 14,700 1,020 Climbing New York TRACON
02:09PM 40.9278 -74.6875 314° West 319 367 15,200 840 Climbing New York Center
02:10PM 40.9203 -74.7914 265° West 339 390 16,000 840 Climbing New York Center
02:11PM 40.8856 -74.8936 246° West 331 381 16,900 960 Climbing New York Center
02:12PM 40.8461 -75.0036 245° Southwest 336 387 17,900 960 Climbing New York Center
02:13PM 40.8042 -75.1300 246° West 336 387 18,900 900 Climbing New York Center
02:14PM 40.7872 -75.2439 259° West 343 395 19,800 900 Climbing New York Center
02:15PM 40.7656 -75.3742 258° West 354 407 20,700 900 Climbing New York Center
02:16PM 40.7256 -75.4944 246° West 360 414 21,600 840 Climbing New York Center
02:17PM 40.6811 -75.6147 244° Southwest 367 422 22,500 840 Climbing New York Center
02:18PM 40.6342 -75.7400 244° Southwest 373 429 23,400 1,020 Climbing New York Center
02:19PM 40.5872 -75.8594 243° Southwest 373 429 24,600 1,200 Climbing New York Center
02:20PM 40.5336 -75.9922 242° Southwest 378 435 25,800 1,140 Climbing New York Center
02:21PM 40.4886 -76.1117 244° Southwest 378 435 26,900 1,080 Climbing New York Center
02:22PM 40.4458 -76.2281 244° Southwest 373 429 28,100 1,140 Climbing New York Center
02:23PM 40.4031 -76.3394 243° Southwest 360 414 29,200 1,080 Climbing New York Center
02:24PM 40.3583 -76.4503 242° Southwest 354 407 30,300 1,140 Climbing New York Center
02:25PM 40.3175 -76.5583 244° Southwest 349 402 31,500 1,080 Climbing New York Center
02:26PM 40.2728 -76.6636 241° Southwest 344 396 32,500 960 Climbing New York Center
02:27PM 40.2297 -76.7714 242° Southwest 338 389 33,500 720 Climbing New York Center
02:28PM 40.1889 -76.8792 244° Southwest 338 389 34,000 780 Climbing New York Center
02:29PM 40.1436 -76.9867 241° Southwest 338 389 35,100 960 Climbing New York Center
02:30PM 40.1053 -77.0783 241° Southwest 338 389 36,000 420 Climbing New York Center
02:31PM 40.0622 -77.1828 242° Southwest 338 389 36,000  Level New York Center
02:32PM 40.0186 -77.2928 243° Southwest 338 389 36,000  Level New York Center
02:33PM 39.9728 -77.4078 243° Southwest 344 396 36,000  Level New York Center
02:34PM 39.9625 -77.6386 267° West 352 405 36,000  Level Cleveland Center
02:35PM 39.9678 -77.7711 273° West 363 418 36,000  Level Cleveland Center
02:36PM 39.9708 -77.9011 272° West 363 418 36,000  Level Cleveland Center
02:37PM 39.9739 -78.0283 272° West 363 418 36,000  Level Cleveland Center
02:38PM 39.9786 -78.1556 273° West 363 418 36,000  Level Cleveland Center
02:39PM 39.9775 -78.2939 269° West 358 412 36,000  Level Cleveland Center
02:40PM 39.9819 -78.4236 273° West 363 418 36,000  Level Cleveland Center
02:41PM 39.9844 -78.5592 271° West 363 418 36,000  Level Cleveland Center
02:42PM 39.9867 -78.6892 271° West 363 418 36,000  Level Cleveland Center
02:43PM 39.9911 -78.8189 273° West 363 418 36,000  Level Cleveland Center
02:44PM 39.9950 -78.9517 272° West 368 423 36,000  Level Cleveland Center
02:45PM 39.9989 -79.0764 272° West 374 430 36,000  Level Cleveland Center
02:46PM 40.0025 -79.2089 272° West 374 430 36,000  Level Cleveland Center
02:47PM 40.0042 -79.3392 271° West 364 419 36,000  Level Cleveland Center
02:48PM 40.0075 -79.4664 272° West 359 413 36,000  Level Cleveland Center
02:49PM 40.0086 -79.5911 271° West 359 413 36,000  Level Cleveland Center
02:50PM 40.0097 -79.7158 271° West 352 405 36,000  Level Cleveland Center
02:51PM 40.0125 -79.8403 272° West 347 399 36,000  Level Cleveland Center
02:52PM 40.0114 -79.9733 269° West 347 399 36,000  Level Cleveland Center
02:53PM 40.0139 -80.0978 272° West 347 399 36,000  Level Cleveland Center
02:54PM 40.0167 -80.2200 272° West 342 394 36,000  Level Cleveland Center
02:55PM 40.0169 -80.3444 270° West 347 399 36,000  Level Cleveland Center
02:56PM 40.0192 -80.4719 271° West 347 399 36,000  Level Cleveland Center
02:57PM 40.0192 -80.5994 270° West 347 399 36,000  Level Cleveland Center
02:58PM 40.0211 -80.7322 271° West 347 399 36,000  Level Cleveland Center
02:59PM 40.0208 -80.8622 270° West 352 405 36,000  Level Cleveland Center
03:02PM 40.0117 -81.1736 268° West 359 413 36,000  Level Indianapolis Center
03:03PM 40.0092 -81.2975 269° West 343 395 36,000  Level Indianapolis Center
03:04PM 40.0078 -81.4197 269° West 335 386 36,000  Level Indianapolis Center
03:05PM 40.0047 -81.5425 268° West 336 387 36,000  Level Indianapolis Center
03:06PM 40.0025 -81.6675 269° West 339 390 36,000  Level Indianapolis Center
03:07PM 39.9992 -81.7958 268° West 346 398 36,000  Level Indianapolis Center
03:08PM 39.9975 -81.9439 269° West 347 399 36,000  Level Indianapolis Center
03:09PM 39.9933 -82.0714 268° West 348 400 36,000  Level Indianapolis Center
03:10PM 39.9892 -82.1994 268° West 350 403 36,000  Level Indianapolis Center
03:11PM 39.9875 -82.3286 269° West 352 405 36,000  Level Indianapolis Center
03:12PM 39.9833 -82.4553 268° West 350 403 36,000  Level Indianapolis Center
03:13PM 39.9803 -82.5792 268° West 342 394 36,000  Level Indianapolis Center
03:14PM 39.9761 -82.7014 267° West 336 387 36,000  Level Indianapolis Center
03:15PM 39.9728 -82.8261 268° West 340 391 36,000  Level Indianapolis Center
03:16PM 39.9681 -82.9719 268° West 343 395 36,000  Level Indianapolis Center
03:17PM 39.9650 -83.0975 268° West 346 398 36,000  Level Indianapolis Center
03:18PM 39.9625 -83.2236 269° West 346 398 36,000  Level Indianapolis Center
03:19PM 39.9583 -83.3506 268° West 350 403 36,000 -60 Level Indianapolis Center
03:20PM 39.9539 -83.4761 267° West 349 402 35,900  Descending Indianapolis Center
03:21PM 39.9472 -83.6181 267° West 339 390 36,000  Climbing Indianapolis Center
03:22PM 39.9436 -83.7400 268° West 336 387 36,000  Level Indianapolis Center
03:23PM 39.9389 -83.8631 267° West 340 391 36,000  Level Indianapolis Center
03:25PM 39.9347 -83.9856 267° West 337 388 36,000  Level Indianapolis Center
03:26PM 39.9294 -84.1083 267° West 336 387 36,000  Level Indianapolis Center
03:27PM 39.9244 -84.2333 267° West 343 395 36,000  Level Indianapolis Center
03:28PM 39.9181 -84.3808 267° West 347 399 36,000  Level Indianapolis Center
03:29PM 39.9128 -84.5058 267° West 343 395 36,000  Level Indianapolis Center
03:30PM 39.9064 -84.6300 266° West 341 392 36,000  Level Indianapolis Center
03:31PM 39.9000 -84.7528 266° West 338 389 36,000  Level Indianapolis Center
03:32PM 39.8953 -84.8744 267° West 334 384 36,000  Level Indianapolis Center
03:33PM 39.8869 -85.0108 265° West 338 389 36,000  Level Indianapolis Center
03:34PM 39.8819 -85.1339 267° West 339 390 36,000  Level Indianapolis Center
03:35PM 39.8764 -85.2558 267° West 336 387 36,000  Level Indianapolis Center
03:36PM 39.8697 -85.3756 266° West 332 382 36,000  Level Indianapolis Center
03:37PM 39.8644 -85.4964 267° West 332 382 36,000  Level Indianapolis Center
03:38PM 39.8572 -85.6156 266° West 331 381 36,000  Level Indianapolis Center
03:39PM 39.8500 -85.7567 266° West 333 383 36,000  Level Indianapolis Center
03:40PM 39.8431 -85.8786 266° West 336 387 36,000  Level Indianapolis Center
03:41PM 39.8364 -86.0011 266° West 339 390 36,000  Level Indianapolis Center
03:42PM 39.8292 -86.1250 266° West 343 395 36,000  Level Indianapolis Center
03:43PM 39.8208 -86.2514 265° West 346 398 36,000  Level Indianapolis Center
03:44PM 39.8100 -86.3864 264° West 338 389 36,000  Level Indianapolis Center
03:45PM 39.7831 -86.4978 253° West 329 379 36,000  Level Indianapolis Center
03:46PM 39.7556 -86.6103 252° West 326 375 36,000  Level Indianapolis Center
03:47PM 39.7278 -86.7203 252° West 322 371 36,000  Level Indianapolis Center
03:48PM 39.7003 -86.8342 253° West 328 377 36,000  Level Indianapolis Center
03:49PM 39.6661 -86.9689 252° West 333 383 36,000  Level Indianapolis Center
03:50PM 39.6378 -87.0831 252° West 332 382 36,000  Level Indianapolis Center
03:51PM 39.6092 -87.1942 252° West 325 374 36,000  Level Indianapolis Center
03:52PM 39.5819 -87.3044 252° West 322 371 36,000 -300 Level Indianapolis Center
03:53PM 39.5542 -87.4122 252° West 313 360 35,400 -1,080 Descending Indianapolis Center
03:54PM 39.5264 -87.5236 252° West 322 371 33,800 -1,740 Descending Indianapolis Center
03:56PM 39.4922 -87.6578 252° West 334 384 31,900 -1,800 Descending Indianapolis Center
03:57PM 39.4619 -87.7756 252° West 343 395 30,200 -1,680 Descending Indianapolis Center
03:58PM 39.4317 -87.8906 251° West 338 389 28,500 -1,380 Descending Indianapolis Center
03:58PM 39.4217 -87.9297 252° West 338 389 28,200 -360 Descending Kansas City Center
03:59PM 39.3914 -88.0461 251° West 340 391 28,000 -120 Descending Kansas City Center
04:00PM 39.3606 -88.1619 251° West 341 392 28,000  Level Kansas City Center
04:01PM 39.3297 -88.2769 251° West 340 391 28,000  Level Kansas City Center
04:02PM 39.2944 -88.4119 251° West 332 382 28,000 -480 Level Kansas City Center
04:03PM 39.2639 -88.5267 251° West 335 386 27,100 -1,260 Descending Kansas City Center
04:04PM 39.2353 -88.6306 250° West 337 388 25,400 -1,800 Descending Kansas City Center
04:06PM 39.1853 -88.8183 251° West 326 375 22,300 -2,040 Descending Indianapolis Center
04:06PM 39.1703 -88.8733 251° West 321 369 21,300 -2,160 Descending Kansas City Center
04:07PM 39.1406 -88.9897 252° West 320 368 19,300 -1,680 Descending Kansas City Center
04:08PM 39.1114 -89.0958 251° West 316 364 17,800 -1,620 Descending Kansas City Center
04:09PM 39.0825 -89.2050 251° West 323 372 15,900 -2,040 Descending Kansas City Center
04:10PM 39.0711 -89.2061 184° South 342 394 14,900 -2,220 Descending FAA TRACON SMA TRACON (SMA)
04:10PM 39.0639 -89.2422 256° West 341 392 14,300 -1,980 Descending FAA TRACON SMA TRACON (SMA)
04:10PM 39.0525 -89.2864 252° West 338 389 13,600 -1,800 Descending FAA TRACON SMA TRACON (SMA)
04:11PM 39.0447 -89.3225 255° West 339 390 13,100 -1,680 Descending FAA TRACON SMA TRACON (SMA)
04:11PM 39.0344 -89.3575 249° West 340 391 12,500 -2,040 Descending FAA TRACON SMA TRACON (SMA)
04:11PM 39.0225 -89.4019 251° West 341 392 11,800 -1,980 Descending FAA TRACON SMA TRACON (SMA)
04:12PM 39.0169 -89.4381 259° West 337 388 11,200 -1,200 Descending FAA TRACON SMA TRACON (SMA)
04:12PM 39.0078 -89.4722 251° West 332 382 11,000 -480 Descending FAA TRACON SMA TRACON (SMA)
04:12PM 38.9969 -89.5156 252° West 330 380 10,900 -180 Descending FAA TRACON SMA TRACON (SMA)
04:13PM 38.9883 -89.5506 252° West 332 382 10,900 120 Level FAA TRACON SMA TRACON (SMA)
04:13PM 38.9722 -89.5786 234° Southwest 322 371 11,000 -480 Climbing FAA TRACON SMA TRACON (SMA)
04:13PM 38.9481 -89.6064 222° Southwest 311 358 10,600 -1,200 Descending FAA TRACON SMA TRACON (SMA)
04:14PM 38.9306 -89.6275 223° Southwest 293 337 10,200 -1,440 Descending FAA TRACON SMA TRACON (SMA)
04:14PM 38.9142 -89.6489 225° Southwest 278 320 9,700 -1,980 Descending FAA TRACON SMA TRACON (SMA)
04:14PM 38.8922 -89.6742 222° Southwest 275 316 8,900 -2,100 Descending FAA TRACON SMA TRACON (SMA)
04:15PM 38.8750 -89.6947 223° Southwest 272 313 8,300 -1,800 Descending FAA TRACON SMA TRACON (SMA)
04:15PM 38.8592 -89.7150 225° Southwest 269 310 7,700 -1,800 Descending FAA TRACON SMA TRACON (SMA)
04:15PM 38.8386 -89.7403 224° Southwest 268 308 7,100 -1,080 Descending FAA TRACON SMA TRACON (SMA)
04:16PM 38.8231 -89.7608 226° Southwest 264 304 7,000 -300 Descending FAA TRACON SMA TRACON (SMA)
04:16PM 38.8078 -89.7808 226° Southwest 259 298 6,900  Descending FAA TRACON SMA TRACON (SMA)
04:16PM 38.7886 -89.8058 225° Southwest 258 297 7,000 120 Climbing FAA TRACON SMA TRACON (SMA)
04:17PM 38.7719 -89.8261 223° Southwest 260 299 7,000  Level FAA TRACON SMA TRACON (SMA)
04:17PM 38.7561 -89.8464 225° Southwest 263 303 7,000 -180 Level FAA TRACON SMA TRACON (SMA)
04:17PM 38.7364 -89.8711 224° Southwest 260 299 6,900 -180 Descending FAA TRACON SMA TRACON (SMA)
04:18PM 38.7200 -89.8914 224° Southwest 261 300 6,900 -480 Level FAA TRACON SMA TRACON (SMA)
04:18PM 38.7031 -89.9114 223° Southwest 263 303 6,600 -1,380 Descending FAA TRACON SMA TRACON (SMA)
04:18PM 38.6847 -89.9364 227° Southwest 259 298 6,000 -1,560 Descending FAA TRACON SMA TRACON (SMA)
04:19PM 38.6697 -89.9561 226° Southwest 254 292 5,600 -1,380 Descending FAA TRACON SMA TRACON (SMA)
04:19PM 38.6542 -89.9761 225° Southwest 255 293 5,100 -900 Descending FAA TRACON SMA TRACON (SMA)
04:19PM 38.6367 -89.9997 227° Southwest 245 282 5,000 -300 Descending FAA TRACON SMA TRACON (SMA)
04:20PM 38.6244 -90.0178 229° Southwest 225 259 4,900 -180 Descending FAA TRACON SMA TRACON (SMA)
04:20PM 38.6208 -90.0375 257° West 205 236 4,900 -780 Level FAA TRACON SMA TRACON (SMA)
04:20PM 38.6222 -90.0608 274° West 174 200 4,400 -900 Descending FAA TRACON SMA TRACON (SMA)
04:21PM 38.6303 -90.0778 301° West 177 204 4,300 -300 Descending FAA TRACON SMA TRACON (SMA)
04:21PM 38.6392 -90.0933 306° West 178 205 4,200 -600 Descending FAA TRACON SMA TRACON (SMA)
04:21PM 38.6500 -90.1133 305° West 179 206 3,900 -900 Descending FAA TRACON SMA TRACON (SMA)
04:22PM 38.6578 -90.1303 300° West 177 204 3,600 -900 Descending FAA TRACON SMA TRACON (SMA)
04:22PM 38.6658 -90.1469 302° West 178 205 3,300 -1,080 Descending FAA TRACON SMA TRACON (SMA)
04:22PM 38.6761 -90.1672 303° West 179 206 2,900 -1,080 Descending FAA TRACON SMA TRACON (SMA)
04:23PM 38.6839 -90.1836 301° West 176 203 2,600 -1,080 Descending FAA TRACON SMA TRACON (SMA)
04:23PM 38.6911 -90.1983 302° West 165 190 2,200 -1,080 Descending FAA TRACON SMA TRACON (SMA)
04:23PM 38.6992 -90.2147 302° West 142 163 1,900 -780 Descending FAA TRACON SMA TRACON (SMA)
04:24PM 38.7053 -90.2267 303° West 133 153 1,700 -660 Descending FAA TRACON SMA TRACON (SMA)